Time;durP1;ratioP1;P1;durP2;ratioP2;P2;SDS_P1;SDS_P2;PMS_P1;PMS_P2;Temp;Humidity;BMP_temperature;BMP_pressure;BME280_temperature;BME280_humidity;BME280_pressure;Samples;Min_cycle;Max_cycle;Signal;HPM_P1;HPM_P2
2023/05/18 05:16:08;;;;;;;24.95;22.60;;;25.60;99.90;;;;;;6286635;22;20101;-93
2023/05/18 05:19:24;;;;;;;23.98;22.13;;;26.20;99.90;;;;;;6252256;22;20069;-93
2023/05/18 05:40:59;;;;;;;;;;;26.80;99.90;;;;;;6257832;22;20050;-92
2023/05/18 05:44:20;;;;;;;23.02;21.33;;;27.00;99.90;;;;;;6131914;23;19909;-93
2023/05/18 05:46:49;;;;;;;22.77;20.73;;;26.20;99.90;;;;;;6108328;23;20013;-92
2023/05/18 05:49:16;;;;;;;22.08;20.45;;;26.00;99.90;;;;;;6130875;23;20060;-91
2023/05/18 06:26:44;;;;;;;24.10;22.33;;;26.60;99.90;;;;;;6259895;22;20031;-93
2023/05/18 06:29:29;;;;;;;23.35;21.67;;;27.60;99.90;;;;;;6251478;22;20004;-86
2023/05/18 06:32:28;;;;;;;24.55;22.98;;;27.60;99.90;;;;;;6239128;23;20053;-86
2023/05/18 06:34:58;;;;;;;25.27;23.67;;;27.90;99.90;;;;;;6247453;23;20000;-86
2023/05/18 06:37:25;;;;;;;24.58;23.05;;;27.90;99.90;;;;;;6196057;23;20135;-86
2023/05/18 06:39:52;;;;;;;25.70;23.80;;;27.80;99.90;;;;;;6189139;23;20004;-87
2023/05/18 06:42:18;;;;;;;25.73;23.83;;;27.90;99.90;;;;;;6195598;23;20004;-86
2023/05/18 06:45:08;;;;;;;24.95;23.27;;;28.00;99.90;;;;;;6225651;23;20031;-91
2023/05/18 06:47:55;;;;;;;24.90;23.17;;;28.60;99.90;;;;;;6226308;23;20012;-89
2023/05/18 06:50:25;;;;;;;25.52;23.60;;;28.10;99.90;;;;;;6218653;23;20512;-90
2023/05/18 06:52:52;;;;;;;25.05;23.35;;;27.50;99.90;;;;;;6199442;23;20012;-92
2023/05/18 06:55:19;;;;;;;25.13;23.25;;;27.10;99.90;;;;;;6195772;23;20014;-91
2023/05/18 06:57:45;;;;;;;25.15;23.00;;;26.50;99.90;;;;;;6226199;23;20023;-75
2023/05/18 07:00:12;;;;;;;24.40;22.70;;;26.20;99.90;;;;;;6221347;23;20004;-82
2023/05/18 10:02:55;;;;;;;25.52;23.95;;;26.00;99.90;;;;;;6253851;22;20055;-90
2023/05/18 10:05:29;;;;;;;25.00;23.38;;;25.60;99.90;;;;;;6224383;23;20111;-76
2023/05/18 10:07:56;;;;;;;25.17;23.58;;;25.30;99.90;;;;;;6244943;23;20071;-84
2023/05/18 10:40:07;;;;;;;25.92;24.42;;;26.70;99.90;;;;;;6269406;22;20407;-92
2023/05/18 10:42:35;;;;;;;27.02;25.08;;;26.30;99.90;;;;;;6251735;22;20042;-90
2023/05/18 10:45:02;;;;;;;25.75;24.35;;;26.10;99.90;;;;;;6227715;22;20337;-91
2023/05/18 10:47:30;;;;;;;25.83;24.33;;;26.10;99.90;;;;;;6251447;22;20008;-92
2023/05/18 10:50:01;;;;;;;25.88;24.27;;;26.30;99.90;;;;;;6221021;23;20142;-93
2023/05/18 10:52:30;;;;;;;26.02;24.45;;;26.30;99.90;;;;;;6246608;23;20023;-92
2023/05/18 10:55:00;;;;;;;25.98;24.58;;;26.30;99.90;;;;;;6246272;23;20004;-92
2023/05/18 10:57:42;;;;;;;27.98;26.20;;;26.80;99.90;;;;;;6246263;23;20047;-93
2023/05/18 11:00:09;;;;;;;27.23;25.27;;;26.80;99.90;;;;;;6246345;22;20012;-92
2023/05/18 11:02:41;;;;;;;27.70;25.92;;;27.20;99.90;;;;;;6246955;23;20005;-92
2023/05/18 11:05:09;;;;;;;27.83;26.13;;;27.30;99.90;;;;;;6246036;23;20012;-94
2023/05/18 11:07:36;;;;;;;27.42;25.45;;;27.40;99.90;;;;;;6246104;23;20008;-94
2023/05/18 11:10:09;;;;;;;28.38;26.35;;;27.60;99.90;;;;;;6245837;22;20093;-93
2023/05/18 11:12:39;;;;;;;27.88;26.17;;;27.50;99.90;;;;;;6220977;23;20091;-91
2023/05/18 11:15:07;;;;;;;26.90;25.20;;;27.10;99.90;;;;;;6246365;23;20012;-92
2023/05/18 11:17:34;;;;;;;27.13;25.27;;;26.60;99.90;;;;;;6246357;23;20016;-93
2023/05/18 11:20:04;;;;;;;26.83;25.13;;;25.90;99.90;;;;;;6246519;22;20460;-91
2023/05/18 11:22:51;;;;;;;25.55;24.02;;;25.30;99.90;;;;;;6221322;23;20452;-93
2023/05/18 11:25:26;;;;;;;25.58;23.70;;;25.20;99.90;;;;;;6246224;23;20465;-94
2023/05/18 11:28:04;;;;;;;24.60;22.90;;;25.00;99.90;;;;;;6221047;23;20144;-92
2023/05/18 11:30:35;;;;;;;22.90;21.40;;;24.10;99.90;;;;;;6245860;22;20008;-93
2023/05/18 11:33:17;;;;;;;20.75;19.02;;;23.80;99.90;;;;;;6220919;23;20012;-93
2023/05/18 11:36:01;;;;;;;21.02;19.23;;;22.60;99.90;;;;;;6246085;23;20008;-92
2023/05/18 11:38:55;;;;;;;22.48;20.52;;;21.90;99.90;;;;;;6220531;23;20024;-90
2023/05/18 11:41:43;;;;;;;20.67;19.27;;;21.50;99.90;;;;;;6245987;22;20087;-91
2023/05/18 11:44:15;;;;;;;21.02;19.52;;;21.50;99.90;;;;;;6221028;23;20015;-90
2023/05/18 11:46:53;;;;;;;21.05;19.75;;;21.50;99.90;;;;;;6220794;23;20008;-90
2023/05/18 11:49:23;;;;;;;22.52;20.88;;;21.30;99.90;;;;;;6221386;23;20008;-91
2023/05/18 11:52:22;;;;;;;21.30;19.83;;;21.00;99.90;;;;;;6245704;22;20008;-92
2023/05/18 11:54:59;;;;;;;21.17;19.67;;;21.30;99.90;;;;;;6245971;23;20015;-93
2023/05/18 11:57:42;;;;;;;20.40;19.08;;;21.40;99.90;;;;;;6245877;23;20016;-92
2023/05/18 12:00:11;;;;;;;20.20;18.77;;;21.70;99.90;;;;;;6245999;23;20004;-92
2023/05/18 12:02:46;;;;;;;20.27;18.77;;;21.70;99.90;;;;;;6245157;22;20012;-93
2023/05/18 12:05:14;;;;;;;19.80;18.35;;;21.80;99.90;;;;;;6220637;23;20061;-92
2023/05/18 18:27:47;;;;;;;20.92;12.20;;;17.70;99.90;;;;;;6271228;22;20252;-91
2023/05/18 18:30:14;;;;;;;23.23;12.15;;;17.70;99.90;;;;;;6251867;22;20008;-92
2023/05/18 18:33:08;;;;;;;17.20;11.98;;;17.60;99.90;;;;;;6224027;22;20005;-92
2023/05/18 18:35:41;;;;;;;19.10;10.95;;;17.60;99.90;;;;;;6221819;23;20011;-94
2023/05/18 18:38:51;;;;;;;22.75;11.32;;;17.50;99.90;;;;;;6247128;23;20027;-93
2023/05/18 18:41:44;;;;;;;21.80;11.45;;;17.50;99.90;;;;;;6127854;23;20065;-92
2023/05/18 18:44:43;;;;;;;16.02;11.15;;;17.40;99.90;;;;;;6130092;23;20010;-93
2023/05/18 18:48:24;;;;;;;;;;;;;;;;;;;;;
2023/05/18 18:51:25;;;;;;;25.48;10.68;;;17.40;99.90;;;;;;6087237;23;20021;-92
2023/05/18 18:54:13;;;;;;;25.75;10.82;;;17.50;99.90;;;;;;6104275;23;20010;-92
2023/05/18 18:56:56;;;;;;;24.38;11.65;;;17.50;99.90;;;;;;6125377;23;20010;-92
2023/05/18 18:59:38;;;;;;;20.38;10.85;;;17.40;99.90;;;;;;6101438;23;20440;-93
